West Greenwich, Rhode Island
Current Conditions -  °F | °C
As of 2:51 AM on Thursday 23 Oct 2014 (Local Time) from KPVD Reporting Station
Overcast Overcast  
Wind Chill: 51°   Ceiling: 1400
Heat Index: 51°   Visibility: 10mi
Dew Point: 48°   Wind: 24mph
Humidity: 89%   Direction: 10°N
Pressure: 29.66"   Gusts: 36mph
Location:  41.63°N, 71.66°W
Report Text: KPVD 230651Z AUTO 01021G31KT 10SM BKN014 OVC025 11/09 A2966 RMK AO2 PK WND 36034/0604 RAE12 PRESFR SLP044 P0000 T01060089
Loading
Personal Weather Stations






























Interactive Weather Map
Tropical Storm Tracking
New forecast layout! Learn more

10-Day Weather Forecast

Advertisements
Track Severe Weather on mobile